Eems Carrier — PFHD — position and weather

sailwx.info

Track history (hours):
 
Tides and Currents Weather Stations Pressure Air Temp Water Temp Dewpoint Dewpoint Depression Visibility Wind Speed Wind Dir Waves Ship Positions

Eems Carrier

Last reported at 2018-Jun-16 11:33 UTC. Time now 2018-Jun-18 00:08 UTC.
Position N 56°04' W 001°51'.

Length 84 m; draft 4.4 m.

Type: Cargo ship. MMSI: 245257000.

Date/timePositionNaut miles runAvg speedWind from/ knotsBaromVisibWave heightAir tempDewpointWater temp
2018-Jun-16 11:33N 56°04' W 001°51'110.4
2018-Jun-16 11:30N 56°04' W 001°51'510.2
2018-Jun-16 11:00N 55°59' W 001°47'510.2
2018-Jun-16 10:30N 55°55' W 001°43'510.2
2018-Jun-16 10:00N 55°50' W 001°39'510.3
2018-Jun-16 09:30N 55°45' W 001°35'510.3
2018-Jun-16 09:00N 55°41' W 001°31'510.2
2018-Jun-16 08:30N 55°36' W 001°27'8 9.5
2018-Jun-16 07:39N 55°29' W 001°19'2 9.0
2018-Jun-16 07:24N 55°27' W 001°17'3 9.0
2018-Jun-16 07:00N 55°24' W 001°14'5 9.0
2018-Jun-16 06:27N 55°20' W 001°10'51 9.1
2018-Jun-16 00:51N 54°36' W 000°27'410.7
2018-Jun-16 00:30N 54°33' W 000°24'510.9
2018-Jun-16 00:00N 54°28' W 000°19'611.2
2018-Jun-15 23:30N 54°23' W 000°15'511.1
2018-Jun-15 23:00N 54°18' W 000°10'611.0
2018-Jun-15 22:30N 54°13' W 000°06'611.8
2018-Jun-15 22:00N 54°08' W 000°01'60 8.3
2018-Jun-15 14:48N 53°20' E 001°00'311.1
2018-Jun-15 14:30N 53°18' E 001°05'811.5
2018-Jun-15 13:50N 53°13' E 001°15'411.1
2018-Jun-15 13:27N 53°12' E 001°22'511.0
2018-Jun-15 13:00N 53°11' E 001°29'610.6
2018-Jun-15 12:26N 53°09' E 001°39'510.1
2018-Jun-15 11:59N 53°08' E 001°46'6 9.4
2018-Jun-15 11:19N 53°05' E 001°56'3 9.0
2018-Jun-15 11:00N 53°04' E 001°60'5 8.4
2018-Jun-15 10:22N 53°01' E 002°07'3 7.8
2018-Jun-15 10:00N 52°59' E 002°11'4 7.1
2018-Jun-15 09:27N 52°56' E 002°14'78 8.6
2018-Jun-15 00:22N 51°38' E 002°24'410.2
2018-Jun-14 23:59N 51°35' E 002°20'5 9.8
2018-Jun-14 23:30N 51°31' E 002°15'5 9.1
2018-Jun-14 23:00N 51°28' E 002°11'4 8.3
2018-Jun-14 22:30N 51°24' E 002°08'4 8.1
2018-Jun-14 22:00N 51°20' E 002°07'4 7.7
2018-Jun-14 21:30N 51°16' E 002°05'3 6.5
2018-Jun-14 21:00N 51°13' E 002°02'3 6.6
2018-Jun-14 20:30N 51°12' E 001°57'3 6.5
2018-Jun-14 20:00N 51°10' E 001°53'3 6.6
2018-Jun-14 19:30N 51°08' E 001°49'3 6.6
2018-Jun-14 19:00N 51°06' E 001°44'3 6.8
2018-Jun-14 18:30N 51°04' E 001°40'4 7.4
2018-Jun-14 17:55N 51°01' E 001°35'3 8.1
2018-Jun-14 17:30N 50°59' E 001°31'4 8.5
2018-Jun-14 17:00N 50°56' E 001°26'76 9.2
2018-Jun-14 08:40N 50°17' W 000°17'512.4
2018-Jun-14 08:17N 50°15' W 000°25'412.4
2018-Jun-14 07:57N 50°14' W 000°31'3611.2
2018-Jun-14 04:45N 50°05' W 001°24'2 8.7
2018-Jun-14 04:30N 50°04' W 001°28'4 7.8
2018-Jun-14 04:01N 50°03' W 001°33'4 7.0
2018-Jun-14 03:30N 50°02' W 001°39'3 6.1
2018-Jun-14 03:00N 50°01' W 001°43'3 5.4
2018-Jun-14 02:30N 50°00' W 001°47'2 4.6
2018-Jun-14 02:00N 49°60' W 001°51'3 5.2
2018-Jun-14 01:30N 49°59' W 001°54'3 5.1
2018-Jun-14 01:00N 49°58' W 001°58'  
Track history (hours):
 
Tides and Currents Weather Stations Pressure Air Temp Water Temp Dewpoint Dewpoint Depression Visibility Wind Speed Wind Dir Waves Ship Positions

Eems Carrier

Last reported at 2018-Jun-16 11:33 UTC. Time now 2018-Jun-18 00:08 UTC.
Position N 56°04' W 001°51'.

Length 84 m; draft 4.4 m.

Type: Cargo ship. MMSI: 245257000.

Date/timePositionNaut miles runAvg speedWind from/ knotsBaromVisibWave heightAir tempDewpointWater temp
2018-Jun-16 11:33N 56°04' W 001°51'110.4
2018-Jun-16 11:30N 56°04' W 001°51'510.2
2018-Jun-16 11:00N 55°59' W 001°47'510.2
2018-Jun-16 10:30N 55°55' W 001°43'510.2
2018-Jun-16 10:00N 55°50' W 001°39'510.3
2018-Jun-16 09:30N 55°45' W 001°35'510.3
2018-Jun-16 09:00N 55°41' W 001°31'510.2
2018-Jun-16 08:30N 55°36' W 001°27'8 9.5
2018-Jun-16 07:39N 55°29' W 001°19'2 9.0
2018-Jun-16 07:24N 55°27' W 001°17'3 9.0
2018-Jun-16 07:00N 55°24' W 001°14'5 9.0
2018-Jun-16 06:27N 55°20' W 001°10'51 9.1
2018-Jun-16 00:51N 54°36' W 000°27'410.7
2018-Jun-16 00:30N 54°33' W 000°24'510.9
2018-Jun-16 00:00N 54°28' W 000°19'611.2
2018-Jun-15 23:30N 54°23' W 000°15'511.1
2018-Jun-15 23:00N 54°18' W 000°10'611.0
2018-Jun-15 22:30N 54°13' W 000°06'611.8
2018-Jun-15 22:00N 54°08' W 000°01'60 8.3
2018-Jun-15 14:48N 53°20' E 001°00'311.1
2018-Jun-15 14:30N 53°18' E 001°05'811.5
2018-Jun-15 13:50N 53°13' E 001°15'411.1
2018-Jun-15 13:27N 53°12' E 001°22'511.0
2018-Jun-15 13:00N 53°11' E 001°29'610.6
2018-Jun-15 12:26N 53°09' E 001°39'510.1
2018-Jun-15 11:59N 53°08' E 001°46'6 9.4
2018-Jun-15 11:19N 53°05' E 001°56'3 9.0
2018-Jun-15 11:00N 53°04' E 001°60'5 8.4
2018-Jun-15 10:22N 53°01' E 002°07'3 7.8
2018-Jun-15 10:00N 52°59' E 002°11'4 7.1
2018-Jun-15 09:27N 52°56' E 002°14'78 8.6
2018-Jun-15 00:22N 51°38' E 002°24'410.2
2018-Jun-14 23:59N 51°35' E 002°20'5 9.8
2018-Jun-14 23:30N 51°31' E 002°15'5 9.1
2018-Jun-14 23:00N 51°28' E 002°11'4 8.3
2018-Jun-14 22:30N 51°24' E 002°08'4 8.1
2018-Jun-14 22:00N 51°20' E 002°07'4 7.7
2018-Jun-14 21:30N 51°16' E 002°05'3 6.5
2018-Jun-14 21:00N 51°13' E 002°02'3 6.6
2018-Jun-14 20:30N 51°12' E 001°57'3 6.5
2018-Jun-14 20:00N 51°10' E 001°53'3 6.6
2018-Jun-14 19:30N 51°08' E 001°49'3 6.6
2018-Jun-14 19:00N 51°06' E 001°44'3 6.8
2018-Jun-14 18:30N 51°04' E 001°40'4 7.4
2018-Jun-14 17:55N 51°01' E 001°35'3 8.1
2018-Jun-14 17:30N 50°59' E 001°31'4 8.5
2018-Jun-14 17:00N 50°56' E 001°26'76 9.2
2018-Jun-14 08:40N 50°17' W 000°17'512.4
2018-Jun-14 08:17N 50°15' W 000°25'412.4
2018-Jun-14 07:57N 50°14' W 000°31'3611.2
2018-Jun-14 04:45N 50°05' W 001°24'2 8.7
2018-Jun-14 04:30N 50°04' W 001°28'4 7.8
2018-Jun-14 04:01N 50°03' W 001°33'4 7.0
2018-Jun-14 03:30N 50°02' W 001°39'3 6.1
2018-Jun-14 03:00N 50°01' W 001°43'3 5.4
2018-Jun-14 02:30N 50°00' W 001°47'2 4.6
2018-Jun-14 02:00N 49°60' W 001°51'3 5.2
2018-Jun-14 01:30N 49°59' W 001°54'3 5.1
2018-Jun-14 01:00N 49°58' W 001°58'  

Dump ship's entire track history